Terminal Aerodrome Forecast
Issued by NWS Louisville, KY

Home | Current Version | Previous Version | Text Only | Print | Product List | Glossary On
Versions: 1 2 3 4 5 6 7 8 9 10 11 12 13 14
000
FTUS43 KLMK 252300
TAFBWG
TAF
KBWG 252320Z 2600/2624 18005KT P6SM SKC
     FM260100 VRB04KT P6SM SKC
     FM261400 19009KT P6SM FEW250=

USA.gov is the U.S. government's official web portal to all federal, state and local government web resources and services.